createdAt,value
2019-01-24T00:00:01.116Z,-1.86
2019-01-24T00:02:30.041Z,-1.94
2019-01-24T00:04:58.644Z,-1.84
2019-01-24T00:07:27.326Z,-1.84
2019-01-24T00:09:55.930Z,-1.66
2019-01-24T00:12:24.558Z,-1.78
2019-01-24T00:14:53.222Z,-1.87
2019-01-24T00:17:21.864Z,-1.86
2019-01-24T00:19:50.483Z,-1.80
2019-01-24T00:22:19.079Z,-1.78
2019-01-24T00:24:47.663Z,-1.85
2019-01-24T00:27:16.270Z,-1.89
2019-01-24T00:29:44.870Z,-1.87
2019-01-24T00:32:13.453Z,-1.88
2019-01-24T00:34:42.108Z,-1.89
2019-01-24T00:37:10.731Z,-1.80
2019-01-24T00:39:39.358Z,-1.84
2019-01-24T00:42:07.971Z,-1.85
2019-01-24T00:44:36.566Z,-1.71
2019-01-24T00:47:05.178Z,-1.68
2019-01-24T00:49:33.831Z,-1.70
2019-01-24T00:52:02.414Z,-1.78
2019-01-24T00:54:31.037Z,-1.82
2019-01-24T00:56:59.623Z,-1.78
2019-01-24T00:59:28.246Z,-1.75
2019-01-24T01:01:56.851Z,-1.78
2019-01-24T01:04:29.726Z,-1.78
2019-01-24T01:06:55.858Z,-1.95
2019-01-24T01:09:24.472Z,-1.86
2019-01-24T01:11:53.067Z,-1.99
2019-01-24T01:14:21.669Z,-2.03
2019-01-24T01:16:50.260Z,-2.03
2019-01-24T01:19:18.899Z,-2.01
2019-01-24T01:21:47.497Z,-2.17
2019-01-24T01:24:16.127Z,-2.09
2019-01-24T01:26:44.748Z,-2.19
2019-01-24T01:29:13.469Z,-2.10
2019-01-24T01:31:42.070Z,-2.12
2019-01-24T01:34:10.712Z,-2.15
2019-01-24T01:36:39.358Z,-2.09
2019-01-24T01:39:09.255Z,-2.07
2019-01-24T01:41:37.873Z,-2.02
2019-01-24T01:44:06.511Z,-1.93
2019-01-24T01:46:35.173Z,-2.00
2019-01-24T01:49:03.862Z,-2.03
2019-01-24T01:51:32.494Z,-2.03
2019-01-24T01:54:01.115Z,-2.02
2019-01-24T01:56:29.741Z,-1.98
2019-01-24T01:58:58.397Z,-2.04
2019-01-24T02:01:27.084Z,-2.07
2019-01-24T02:03:55.663Z,-1.98
2019-01-24T02:06:24.251Z,-1.98
2019-01-24T02:08:52.875Z,-2.02
2019-01-24T02:11:21.631Z,-2.07
2019-01-24T02:13:50.272Z,-2.02
2019-01-24T02:16:19.174Z,-2.03
2019-01-24T02:18:47.827Z,-2.18
2019-01-24T02:21:16.452Z,-2.17
2019-01-24T02:23:45.048Z,-2.09
2019-01-24T02:26:13.659Z,-2.13
2019-01-24T02:28:42.343Z,-2.26
2019-01-24T02:31:11.020Z,-2.21
2019-01-24T02:33:39.668Z,-2.17
2019-01-24T02:36:08.290Z,-2.26
2019-01-24T02:38:36.950Z,-2.17
2019-01-24T02:41:05.547Z,-2.12
2019-01-24T02:43:34.192Z,-2.12
2019-01-24T02:46:02.783Z,-2.14
2019-01-24T02:48:31.373Z,-2.06
2019-01-24T02:51:00.056Z,-2.16
2019-01-24T02:53:28.605Z,-2.13
2019-01-24T02:55:57.262Z,-2.15
2019-01-24T02:58:25.890Z,-2.20
2019-01-24T03:00:54.504Z,-2.27
2019-01-24T03:03:23.120Z,-2.15
2019-01-24T03:05:51.796Z,-2.16
2019-01-24T03:08:20.408Z,-2.23
2019-01-24T03:10:49.065Z,-2.17
2019-01-24T03:13:17.709Z,-2.22
2019-01-24T03:15:46.333Z,-2.22
2019-01-24T03:18:15.019Z,-2.15
2019-01-24T03:20:43.645Z,-2.13
2019-01-24T03:23:12.276Z,-2.15
2019-01-24T03:25:40.900Z,-2.18
2019-01-24T03:28:09.563Z,-2.16
2019-01-24T03:30:38.201Z,-2.08
2019-01-24T03:33:06.788Z,-2.07
2019-01-24T03:35:35.401Z,-2.08
2019-01-24T03:38:03.966Z,-2.18
2019-01-24T03:40:32.584Z,-2.14
2019-01-24T03:43:01.193Z,-2.17
2019-01-24T03:45:29.821Z,-2.26
2019-01-24T03:47:58.403Z,-2.18
2019-01-24T03:50:26.998Z,-2.26
2019-01-24T03:52:55.641Z,-2.33
2019-01-24T03:55:24.283Z,-2.35
2019-01-24T03:57:52.913Z,-2.25
2019-01-24T04:00:23.252Z,-2.32
2019-01-24T04:02:51.866Z,-2.22
2019-01-24T04:05:20.513Z,-2.34
2019-01-24T04:07:49.193Z,-2.42
2019-01-24T04:10:18.825Z,-2.42
2019-01-24T04:12:47.434Z,-2.45
2019-01-24T04:15:18.226Z,-2.43
2019-01-24T04:17:46.845Z,-2.60
2019-01-24T04:20:16.003Z,-2.58
2019-01-24T04:22:44.609Z,-2.62
2019-01-24T04:25:13.260Z,-2.59
2019-01-24T04:27:41.920Z,-2.60
2019-01-24T04:30:13.449Z,-2.54
2019-01-24T04:32:42.143Z,-2.63
2019-01-24T04:35:11.110Z,-2.52
2019-01-24T04:37:39.742Z,-2.59
2019-01-24T04:40:10.694Z,-2.53
2019-01-24T04:42:39.285Z,-2.53
2019-01-24T04:45:09.090Z,-2.49
2019-01-24T04:47:37.757Z,-2.54
2019-01-24T04:50:06.687Z,-2.46
2019-01-24T04:52:35.307Z,-2.48
2019-01-24T04:55:04.160Z,-2.48
2019-01-24T04:57:32.830Z,-2.57
2019-01-24T05:00:01.441Z,-2.59
2019-01-24T05:02:30.018Z,-2.58
2019-01-24T05:04:58.598Z,-2.59
2019-01-24T05:07:27.161Z,-2.57
2019-01-24T05:09:55.786Z,-2.65
2019-01-24T05:12:24.500Z,-2.50
2019-01-24T05:14:54.082Z,-2.57
2019-01-24T05:17:23.493Z,-2.60
2019-01-24T05:19:52.337Z,-2.51
2019-01-24T05:22:21.031Z,-2.43
2019-01-24T05:24:49.649Z,-2.55
2019-01-24T05:27:18.282Z,-2.51
2019-01-24T05:29:46.921Z,-2.58
2019-01-24T05:32:15.550Z,-2.58
2019-01-24T05:34:44.228Z,-2.65
2019-01-24T05:37:13.055Z,-2.70
2019-01-24T05:39:41.915Z,-2.72
2019-01-24T05:42:10.549Z,-2.71
2019-01-24T05:44:39.135Z,-2.61
2019-01-24T05:47:07.744Z,-2.52
2019-01-24T05:49:36.348Z,-2.56
2019-01-24T05:52:05.014Z,-2.65
2019-01-24T05:54:33.716Z,-2.59
2019-01-24T05:57:02.313Z,-2.66
2019-01-24T05:59:30.897Z,-2.56
2019-01-24T06:02:00.193Z,-2.56
2019-01-24T06:04:28.798Z,-2.50
2019-01-24T06:06:57.388Z,-2.59
2019-01-24T06:09:26.038Z,-2.49
2019-01-24T06:11:54.607Z,-2.57
2019-01-24T06:14:23.308Z,-2.57
2019-01-24T06:16:51.898Z,-2.53
2019-01-24T06:19:20.555Z,-2.69
2019-01-24T06:21:49.302Z,-2.67
2019-01-24T06:24:17.902Z,-2.68
2019-01-24T06:26:46.511Z,-2.67
2019-01-24T06:29:15.100Z,-2.57
2019-01-24T06:31:43.699Z,-2.56
2019-01-24T06:34:12.330Z,-2.56
2019-01-24T06:36:41.006Z,-2.55
2019-01-24T06:39:09.871Z,-2.58
2019-01-24T06:41:38.489Z,-2.72
2019-01-24T06:44:07.186Z,-2.66
2019-01-24T06:46:35.791Z,-2.65
2019-01-24T06:49:04.479Z,-2.78
2019-01-24T06:51:33.104Z,-2.81
2019-01-24T06:54:01.727Z,-2.93
2019-01-24T06:56:30.327Z,-2.95
2019-01-24T06:58:58.959Z,-2.96
2019-01-24T07:01:27.707Z,-3.02
2019-01-24T07:03:56.393Z,-3.03
2019-01-24T07:06:25.160Z,-3.05
2019-01-24T07:08:53.871Z,-3.23
2019-01-24T07:11:22.529Z,-3.18
2019-01-24T07:13:51.231Z,-3.14
2019-01-24T07:16:19.863Z,-3.12
2019-01-24T07:18:48.434Z,-3.15
2019-01-24T07:21:17.174Z,-3.20
2019-01-24T07:23:45.775Z,-3.30
2019-01-24T07:26:14.420Z,-3.20
2019-01-24T07:28:43.333Z,-3.07
2019-01-24T07:31:11.893Z,-3.06
2019-01-24T07:33:40.556Z,-3.10
2019-01-24T07:36:10.481Z,-3.13
2019-01-24T07:38:39.203Z,-2.99
2019-01-24T07:41:07.894Z,-3.24
2019-01-24T07:43:36.567Z,-3.30
2019-01-24T07:46:05.623Z,-3.27
2019-01-24T07:48:34.272Z,-3.25
2019-01-24T07:51:02.863Z,-3.20
2019-01-24T07:53:31.540Z,-3.13
2019-01-24T07:56:00.258Z,-3.01
2019-01-24T07:58:28.983Z,-3.13
2019-01-24T08:00:57.633Z,-3.07
2019-01-24T08:03:26.285Z,-3.00
2019-01-24T08:05:54.958Z,-3.06
2019-01-24T08:08:23.680Z,-3.14
2019-01-24T08:10:52.289Z,-3.11
2019-01-24T08:13:20.964Z,-3.19
2019-01-24T08:15:50.770Z,-3.21
2019-01-24T08:18:19.367Z,-3.14
2019-01-24T08:20:47.946Z,-3.11
2019-01-24T08:23:16.513Z,-3.17
2019-01-24T08:25:45.096Z,-3.13
2019-01-24T08:28:13.729Z,-3.12
2019-01-24T08:30:42.385Z,-3.02
2019-01-24T08:33:11.079Z,-3.01
2019-01-24T08:35:39.646Z,-2.92
2019-01-24T08:38:08.416Z,-2.99
2019-01-24T08:40:37.060Z,-3.17
2019-01-24T08:43:05.671Z,-2.97
2019-01-24T08:45:34.615Z,-2.88
2019-01-24T08:48:05.706Z,-2.78
2019-01-24T08:50:34.344Z,-2.69
2019-01-24T08:53:03.110Z,-2.66
2019-01-24T08:55:37.001Z,-2.76
2019-01-24T08:58:06.254Z,-2.77
2019-01-24T09:00:34.854Z,-2.67
2019-01-24T09:03:03.674Z,-2.50
2019-01-24T09:05:32.403Z,-2.59
2019-01-24T09:08:01.220Z,-2.63
2019-01-24T09:10:32.125Z,-2.53
2019-01-24T09:13:00.860Z,-2.44
2019-01-24T09:15:29.487Z,-2.47
2019-01-24T09:17:58.161Z,-2.50
2019-01-24T09:20:26.819Z,-2.58
2019-01-24T09:22:55.656Z,-2.38
2019-01-24T09:25:24.376Z,-2.20
2019-01-24T09:27:53.095Z,-2.32
2019-01-24T09:30:23.802Z,-2.42
2019-01-24T09:32:52.652Z,-2.37
2019-01-24T09:35:21.342Z,-2.29
2019-01-24T09:37:49.975Z,-2.21
2019-01-24T09:40:18.687Z,-2.17
2019-01-24T09:42:47.281Z,-2.15
2019-01-24T09:45:24.380Z,-2.07
2019-01-24T09:47:53.943Z,-2.13
2019-01-24T09:50:23.278Z,-1.90
2019-01-24T09:52:51.842Z,-1.90
2019-01-24T09:55:20.625Z,-2.15
2019-01-24T09:57:49.349Z,-2.10
2019-01-24T10:00:23.116Z,-2.05
2019-01-24T10:02:51.811Z,-1.85
2019-01-24T10:05:20.432Z,-1.89
2019-01-24T10:07:49.136Z,-1.85
2019-01-24T10:10:19.836Z,-1.87
2019-01-24T10:12:48.457Z,-1.83
2019-01-24T10:15:17.365Z,-1.55
2019-01-24T10:17:45.949Z,-1.48
2019-01-24T10:20:15.938Z,-1.57
2019-01-24T10:22:44.602Z,-1.40
2019-01-24T10:25:15.731Z,-1.42
2019-01-24T10:27:44.418Z,-1.67
2019-01-24T10:30:14.649Z,-1.59
2019-01-24T10:32:43.169Z,-1.72
2019-01-24T10:35:11.823Z,-1.66
2019-01-24T10:37:40.417Z,-1.63
2019-01-24T10:40:12.011Z,-1.54
2019-01-24T10:42:40.897Z,-1.32
2019-01-24T10:45:11.881Z,-1.38
2019-01-24T10:47:40.639Z,-1.66
2019-01-24T10:50:10.686Z,-1.39
2019-01-24T10:52:39.333Z,-1.31
2019-01-24T10:55:13.585Z,-1.40
2019-01-24T10:57:40.107Z,-1.49
2019-01-24T11:00:12.574Z,-1.52
2019-01-24T11:02:41.150Z,-1.66
2019-01-24T11:05:11.192Z,-1.56
2019-01-24T11:07:39.791Z,-1.67
2019-01-24T11:10:10.219Z,-1.54
2019-01-24T11:12:38.857Z,-1.43
2019-01-24T11:15:09.862Z,-1.62
2019-01-24T11:17:38.432Z,-1.67
2019-01-24T11:20:08.793Z,-1.69
2019-01-24T11:22:37.472Z,-1.83
2019-01-24T11:25:07.060Z,-1.86
2019-01-24T11:27:35.706Z,-1.84
2019-01-24T11:30:05.425Z,-1.88
2019-01-24T11:32:34.010Z,-1.63
2019-01-24T11:35:02.735Z,-1.49
2019-01-24T11:37:31.485Z,-1.63
2019-01-24T11:40:00.195Z,-1.68
2019-01-24T11:42:28.752Z,-1.66
2019-01-24T11:44:57.347Z,-1.73
2019-01-24T11:47:25.992Z,-1.72
2019-01-24T11:49:54.660Z,-1.87
2019-01-24T11:52:23.283Z,-1.79
2019-01-24T11:54:51.886Z,-1.84
2019-01-24T11:57:20.497Z,-1.91
2019-01-24T11:59:49.146Z,-1.89
2019-01-24T12:02:17.818Z,-1.71
2019-01-24T12:04:46.423Z,-1.71
2019-01-24T12:07:15.171Z,-1.73
2019-01-24T12:09:44.817Z,-1.76
2019-01-24T12:12:13.476Z,-1.50
2019-01-24T12:14:42.139Z,-1.35
2019-01-24T12:17:10.819Z,-1.19
2019-01-24T12:19:39.451Z,-1.25
2019-01-24T12:22:08.144Z,-1.44
2019-01-24T12:24:36.747Z,-1.28
2019-01-24T12:27:05.451Z,-1.26
2019-01-24T12:29:34.063Z,-1.33
2019-01-24T12:32:02.727Z,-1.40
2019-01-24T12:34:31.494Z,-1.42
2019-01-24T12:37:00.162Z,-1.31
2019-01-24T12:39:28.759Z,-1.37
2019-01-24T12:41:57.414Z,-1.49
2019-01-24T12:44:26.023Z,-1.52
2019-01-24T12:46:54.722Z,-1.48
2019-01-24T12:49:23.672Z,-1.40
2019-01-24T12:51:52.818Z,-1.25
2019-01-24T12:54:21.467Z,-1.42
2019-01-24T12:56:50.066Z,-1.59
2019-01-24T12:59:18.723Z,-1.63
2019-01-24T13:01:47.334Z,-1.58
2019-01-24T13:04:16.011Z,-1.54
2019-01-24T13:06:44.671Z,-1.77
2019-01-24T13:09:13.357Z,-1.78
2019-01-24T13:11:42.071Z,-1.82
2019-01-24T13:14:10.724Z,-1.94
2019-01-24T13:16:39.337Z,-2.07
2019-01-24T13:19:07.986Z,-2.09
2019-01-24T13:21:36.561Z,-2.00
2019-01-24T13:24:05.359Z,-1.97
2019-01-24T13:26:34.009Z,-1.97
2019-01-24T13:29:02.608Z,-2.03
2019-01-24T13:31:31.176Z,-1.89
2019-01-24T13:33:59.822Z,-1.84
2019-01-24T13:36:28.443Z,-1.80
2019-01-24T13:38:57.093Z,-1.83
2019-01-24T13:41:25.683Z,-1.88
2019-01-24T13:43:54.268Z,-1.94
2019-01-24T13:46:22.921Z,-1.99
2019-01-24T13:48:51.504Z,-2.08
2019-01-24T13:51:20.086Z,-2.01
2019-01-24T13:53:48.782Z,-2.16
2019-01-24T13:56:17.378Z,-2.13
2019-01-24T13:58:46.047Z,-2.13
2019-01-24T14:01:14.652Z,-2.10
2019-01-24T14:03:51.440Z,-2.02
2019-01-24T14:06:20.089Z,-1.95
2019-01-24T14:08:48.724Z,-1.92
2019-01-24T14:11:18.184Z,-1.92
2019-01-24T14:13:47.171Z,-1.98
2019-01-24T14:16:15.794Z,-1.95
2019-01-24T14:18:44.413Z,-1.97
2019-01-24T14:21:13.060Z,-1.93
2019-01-24T14:23:41.756Z,-1.94
2019-01-24T14:26:10.554Z,-1.88
2019-01-24T14:28:39.119Z,-1.78
2019-01-24T14:31:07.793Z,-1.80
2019-01-24T14:33:36.441Z,-1.77
2019-01-24T14:36:05.943Z,-1.86
2019-01-24T14:38:34.689Z,-1.76
2019-01-24T14:41:03.330Z,-1.84
2019-01-24T14:43:31.925Z,-1.84
2019-01-24T14:46:00.601Z,-1.80
2019-01-24T14:48:30.426Z,-1.70
2019-01-24T14:50:59.106Z,-1.71
2019-01-24T14:53:28.092Z,-1.56
2019-01-24T14:55:56.701Z,-1.60
2019-01-24T14:58:25.352Z,-1.59
2019-01-24T15:00:58.198Z,-1.53
2019-01-24T15:03:26.863Z,-1.68
2019-01-24T15:05:55.456Z,-1.76
2019-01-24T15:08:24.117Z,-1.69
2019-01-24T15:10:52.732Z,-1.75
2019-01-24T15:13:21.426Z,-1.80
2019-01-24T15:15:50.055Z,-1.93
2019-01-24T15:18:18.638Z,-1.80
2019-01-24T15:20:47.368Z,-1.72
2019-01-24T15:23:16.046Z,-1.65
2019-01-24T15:25:44.753Z,-1.56
2019-01-24T15:28:13.536Z,-1.63
2019-01-24T15:30:42.205Z,-1.85
2019-01-24T15:33:10.791Z,-1.89
2019-01-24T15:35:39.523Z,-1.83
2019-01-24T15:38:08.161Z,-1.80
2019-01-24T15:40:36.763Z,-1.82
2019-01-24T15:43:05.812Z,-1.82
2019-01-24T15:45:34.464Z,-1.75
2019-01-24T15:48:03.084Z,-1.78
2019-01-24T15:50:31.750Z,-1.79
2019-01-24T15:53:00.353Z,-1.81
2019-01-24T15:55:28.939Z,-1.97
2019-01-24T15:57:57.591Z,-1.99
2019-01-24T16:00:30.950Z,-1.96
2019-01-24T16:02:59.538Z,-2.08
2019-01-24T16:05:28.174Z,-1.99
2019-01-24T16:08:01.605Z,-1.94
2019-01-24T16:10:27.299Z,-1.90
2019-01-24T16:12:56.019Z,-1.77
2019-01-24T16:15:34.055Z,-1.71
2019-01-24T16:18:02.796Z,-1.73
2019-01-24T16:20:31.409Z,-1.85
2019-01-24T16:23:00.059Z,-1.80
2019-01-24T16:25:30.166Z,-1.87
2019-01-24T16:27:58.807Z,-1.89
2019-01-24T16:30:29.378Z,-1.88
2019-01-24T16:32:58.035Z,-1.83
2019-01-24T16:35:26.772Z,-1.78
2019-01-24T16:37:55.382Z,-1.85
2019-01-24T16:40:25.144Z,-1.83
2019-01-24T16:42:53.759Z,-1.78
2019-01-24T16:45:24.177Z,-1.85
2019-01-24T16:47:52.823Z,-1.79
2019-01-24T16:50:22.015Z,-1.86
2019-01-24T16:52:50.724Z,-1.88
2019-01-24T16:55:19.356Z,-1.88
2019-01-24T16:57:48.137Z,-1.81
2019-01-24T17:00:22.276Z,-1.87
2019-01-24T17:02:50.932Z,-1.87
2019-01-24T17:05:20.329Z,-1.94
2019-01-24T17:07:49.009Z,-1.90
2019-01-24T17:10:18.869Z,-1.88
2019-01-24T17:12:47.600Z,-1.88
2019-01-24T17:15:17.008Z,-1.80
2019-01-24T17:17:45.666Z,-1.82
2019-01-24T17:20:17.324Z,-1.81
2019-01-24T17:22:46.005Z,-1.88
2019-01-24T17:25:14.623Z,-1.90
2019-01-24T17:27:46.269Z,-1.77
2019-01-24T17:30:19.330Z,-1.75
2019-01-24T17:32:48.201Z,-1.82
2019-01-24T17:35:16.969Z,-1.90
2019-01-24T17:37:45.602Z,-1.89
2019-01-24T17:40:17.515Z,-1.89
2019-01-24T17:42:46.165Z,-1.90
2019-01-24T17:45:16.103Z,-2.00
2019-01-24T17:47:44.737Z,-2.07
2019-01-24T17:50:13.726Z,-2.03
2019-01-24T17:52:42.313Z,-1.99
2019-01-24T17:55:14.065Z,-2.04
2019-01-24T17:57:42.685Z,-2.08
2019-01-24T18:00:15.978Z,-2.06
2019-01-24T18:02:44.642Z,-2.14
2019-01-24T18:05:13.280Z,-2.15
2019-01-24T18:07:41.859Z,-2.13
2019-01-24T18:10:14.299Z,-2.07
2019-01-24T18:12:43.016Z,-1.99
2019-01-24T18:15:14.638Z,-2.05
2019-01-24T18:17:43.294Z,-2.03
2019-01-24T18:20:18.289Z,-1.99
2019-01-24T18:22:44.991Z,-2.03
2019-01-24T18:25:13.651Z,-2.11
2019-01-24T18:27:42.234Z,-2.08
2019-01-24T18:30:14.568Z,-2.13
2019-01-24T18:32:43.274Z,-2.16
2019-01-24T18:35:12.301Z,-2.14
2019-01-24T18:37:41.274Z,-2.19
2019-01-24T18:40:12.570Z,-2.21
2019-01-24T18:42:41.143Z,-2.12
2019-01-24T18:45:12.421Z,-2.09
2019-01-24T18:47:40.967Z,-2.16
2019-01-24T18:50:12.998Z,-2.12
2019-01-24T18:52:41.594Z,-2.16
2019-01-24T18:55:10.517Z,-2.12
2019-01-24T18:57:39.162Z,-2.21
2019-01-24T19:00:10.976Z,-2.20
2019-01-24T19:02:39.585Z,-2.18
2019-01-24T19:05:09.300Z,-2.17
2019-01-24T19:07:38.547Z,-2.17
2019-01-24T19:10:07.943Z,-2.21
2019-01-24T19:12:36.595Z,-2.15
2019-01-24T19:15:07.305Z,-2.08
2019-01-24T19:17:35.896Z,-2.21
2019-01-24T19:20:05.228Z,-2.31
2019-01-24T19:22:33.879Z,-2.29
2019-01-24T19:25:02.566Z,-2.30
2019-01-24T19:27:31.198Z,-2.29
2019-01-24T19:29:59.862Z,-2.26
2019-01-24T19:32:28.498Z,-2.20
2019-01-24T19:34:57.246Z,-2.23
2019-01-24T19:37:25.902Z,-2.22
2019-01-24T19:39:54.563Z,-2.27
2019-01-24T19:42:23.364Z,-2.33
2019-01-24T19:44:51.974Z,-2.34
2019-01-24T19:47:20.590Z,-2.32
2019-01-24T19:49:49.163Z,-2.25
2019-01-24T19:52:17.761Z,-2.27
2019-01-24T19:54:46.330Z,-2.19
2019-01-24T19:57:15.119Z,-2.15
2019-01-24T19:59:43.702Z,-2.16
2019-01-24T20:02:12.317Z,-2.26
2019-01-24T20:04:40.945Z,-2.30
2019-01-24T20:07:10.055Z,-2.26
2019-01-24T20:09:38.729Z,-2.23
2019-01-24T20:12:07.360Z,-2.32
2019-01-24T20:14:35.967Z,-2.28
2019-01-24T20:17:04.590Z,-2.34
2019-01-24T20:19:33.286Z,-2.33
2019-01-24T20:22:01.991Z,-2.31
2019-01-24T20:24:30.630Z,-2.30
2019-01-24T20:26:59.256Z,-2.29
2019-01-24T20:29:27.876Z,-2.39
2019-01-24T20:31:56.481Z,-2.28
2019-01-24T20:34:25.482Z,-2.26
2019-01-24T20:36:54.124Z,-2.27
2019-01-24T20:39:22.717Z,-2.33
2019-01-24T20:41:51.352Z,-2.38
2019-01-24T20:44:20.028Z,-2.37
2019-01-24T20:46:48.690Z,-2.30
2019-01-24T20:49:17.284Z,-2.35
2019-01-24T20:51:45.941Z,-2.36
2019-01-24T20:54:14.539Z,-2.30
2019-01-24T20:56:43.112Z,-2.26
2019-01-24T20:59:11.729Z,-2.23
2019-01-24T21:01:40.351Z,-2.35
2019-01-24T21:04:08.947Z,-2.31
2019-01-24T21:06:37.592Z,-2.24
2019-01-24T21:09:14.697Z,-2.32
2019-01-24T21:11:39.031Z,-2.29
2019-01-24T21:14:07.695Z,-2.35
2019-01-24T21:16:36.326Z,-2.42
2019-01-24T21:19:04.951Z,-2.40
2019-01-24T21:21:33.572Z,-2.25
2019-01-24T21:24:02.254Z,-2.28
2019-01-24T21:26:30.861Z,-2.34
2019-01-24T21:28:59.538Z,-2.34
2019-01-24T21:31:28.108Z,-2.33
2019-01-24T21:33:56.720Z,-2.37
2019-01-24T21:36:25.377Z,-2.28
2019-01-24T21:38:53.972Z,-2.31
2019-01-24T21:41:22.684Z,-2.28
2019-01-24T21:43:51.403Z,-2.34
2019-01-24T21:46:20.085Z,-2.40
2019-01-24T21:48:48.689Z,-2.37
2019-01-24T21:51:17.298Z,-2.37
2019-01-24T21:53:45.907Z,-2.35
2019-01-24T21:56:14.528Z,-2.42
2019-01-24T21:58:43.518Z,-2.38
2019-01-24T22:01:12.116Z,-2.37
2019-01-24T22:03:40.741Z,-2.44
2019-01-24T22:06:09.360Z,-2.43
2019-01-24T22:08:37.930Z,-2.43
2019-01-24T22:11:06.701Z,-2.43
2019-01-24T22:13:35.344Z,-2.42
2019-01-24T22:16:03.975Z,-2.43
2019-01-24T22:18:32.587Z,-2.54
2019-01-24T22:21:01.203Z,-2.48
2019-01-24T22:23:29.878Z,-2.45
2019-01-24T22:25:58.705Z,-2.46
2019-01-24T22:28:27.359Z,-2.44
2019-01-24T22:30:57.819Z,-2.40
2019-01-24T22:33:26.490Z,-2.45
2019-01-24T22:35:55.457Z,-2.46
2019-01-24T22:38:24.447Z,-2.53
2019-01-24T22:40:53.106Z,-2.41
2019-01-24T22:43:22.250Z,-2.49
2019-01-24T22:45:50.874Z,-2.48
2019-01-24T22:48:19.509Z,-2.47
2019-01-24T22:50:48.133Z,-2.52
2019-01-24T22:53:16.767Z,-2.55
2019-01-24T22:55:45.361Z,-2.54
2019-01-24T22:58:14.010Z,-2.46
2019-01-24T23:00:55.630Z,-2.50
2019-01-24T23:03:51.599Z,-2.59
2019-01-24T23:06:20.225Z,-2.55
2019-01-24T23:08:48.962Z,-2.57
2019-01-24T23:11:17.583Z,-2.56
2019-01-24T23:13:46.226Z,-2.53
2019-01-24T23:16:14.904Z,-2.57
2019-01-24T23:18:43.637Z,-2.60
2019-01-24T23:21:12.275Z,-2.56
2019-01-24T23:23:40.889Z,-2.57
2019-01-24T23:26:09.469Z,-2.51
2019-01-24T23:28:38.077Z,-2.45
2019-01-24T23:31:06.680Z,-2.50
2019-01-24T23:33:35.538Z,-2.48
2019-01-24T23:36:04.201Z,-2.39
2019-01-24T23:38:32.986Z,-2.42
2019-01-24T23:41:01.727Z,-2.40
2019-01-24T23:43:30.389Z,-2.34
2019-01-24T23:45:58.966Z,-2.37
2019-01-24T23:48:27.596Z,-2.35
2019-01-24T23:50:56.339Z,-2.37
2019-01-24T23:53:24.945Z,-2.46
2019-01-24T23:55:53.559Z,-2.47
2019-01-24T23:58:22.183Z,-2.47
